sensor_id;sensor_type;location;lat;lon;timestamp;P1;durP1;ratioP1;P2;durP2;ratioP2
24521;SDS011;12680;57.804;12.190;2024-03-02T00:00:34;37.38;;;18.08;;
24521;SDS011;12680;57.804;12.190;2024-03-02T00:03:01;37.50;;;16.15;;
24521;SDS011;12680;57.804;12.190;2024-03-02T00:05:28;44.17;;;18.63;;
24521;SDS011;12680;57.804;12.190;2024-03-02T00:07:56;40.90;;;18.13;;
24521;SDS011;12680;57.804;12.190;2024-03-02T00:10:27;38.88;;;18.30;;
24521;SDS011;12680;57.804;12.190;2024-03-02T00:13:03;41.60;;;17.23;;
24521;SDS011;12680;57.804;12.190;2024-03-02T00:18:03;43.00;;;16.98;;
24521;SDS011;12680;57.804;12.190;2024-03-02T00:20:31;40.55;;;18.05;;
24521;SDS011;12680;57.804;12.190;2024-03-02T00:23:04;38.97;;;17.80;;
24521;SDS011;12680;57.804;12.190;2024-03-02T00:25:42;39.22;;;16.30;;
24521;SDS011;12680;57.804;12.190;2024-03-02T00:28:14;36.70;;;17.52;;
24521;SDS011;12680;57.804;12.190;2024-03-02T00:33:46;39.80;;;18.15;;
24521;SDS011;12680;57.804;12.190;2024-03-02T00:36:15;41.17;;;18.30;;
24521;SDS011;12680;57.804;12.190;2024-03-02T00:38:46;39.72;;;17.75;;
24521;SDS011;12680;57.804;12.190;2024-03-02T00:41:26;40.25;;;18.67;;
24521;SDS011;12680;57.804;12.190;2024-03-02T00:44:04;39.20;;;18.55;;
24521;SDS011;12680;57.804;12.190;2024-03-02T00:46:36;43.95;;;19.23;;
24521;SDS011;12680;57.804;12.190;2024-03-02T00:49:04;41.35;;;17.70;;
24521;SDS011;12680;57.804;12.190;2024-03-02T00:51:37;41.58;;;18.10;;
24521;SDS011;12680;57.804;12.190;2024-03-02T00:54:07;38.30;;;17.58;;
24521;SDS011;12680;57.804;12.190;2024-03-02T00:56:34;41.40;;;18.33;;
24521;SDS011;12680;57.804;12.190;2024-03-02T00:59:01;41.05;;;19.02;;
24521;SDS011;12680;57.804;12.190;2024-03-02T01:01:28;43.47;;;18.70;;
24521;SDS011;12680;57.804;12.190;2024-03-02T01:03:55;50.45;;;19.48;;
24521;SDS011;12680;57.804;12.190;2024-03-02T01:06:22;45.67;;;18.85;;
24521;SDS011;12680;57.804;12.190;2024-03-02T01:08:50;53.08;;;22.25;;
24521;SDS011;12680;57.804;12.190;2024-03-02T01:11:19;57.28;;;22.83;;
24521;SDS011;12680;57.804;12.190;2024-03-02T01:13:49;58.17;;;24.00;;
24521;SDS011;12680;57.804;12.190;2024-03-02T01:16:16;52.17;;;23.13;;
24521;SDS011;12680;57.804;12.190;2024-03-02T01:18:43;58.45;;;23.48;;
24521;SDS011;12680;57.804;12.190;2024-03-02T01:21:10;53.80;;;20.83;;
24521;SDS011;12680;57.804;12.190;2024-03-02T01:23:37;54.70;;;22.23;;
24521;SDS011;12680;57.804;12.190;2024-03-02T01:26:04;58.42;;;23.00;;
24521;SDS011;12680;57.804;12.190;2024-03-02T01:28:31;59.08;;;23.05;;
24521;SDS011;12680;57.804;12.190;2024-03-02T01:30:57;58.60;;;22.85;;
24521;SDS011;12680;57.804;12.190;2024-03-02T01:33:24;59.92;;;24.50;;
24521;SDS011;12680;57.804;12.190;2024-03-02T01:35:52;58.45;;;22.05;;
24521;SDS011;12680;57.804;12.190;2024-03-02T01:38:18;56.92;;;23.98;;
24521;SDS011;12680;57.804;12.190;2024-03-02T01:40:46;54.55;;;23.38;;
24521;SDS011;12680;57.804;12.190;2024-03-02T01:43:12;59.72;;;24.42;;
24521;SDS011;12680;57.804;12.190;2024-03-02T01:45:39;56.83;;;24.05;;
24521;SDS011;12680;57.804;12.190;2024-03-02T01:48:06;46.20;;;19.83;;
24521;SDS011;12680;57.804;12.190;2024-03-02T01:50:34;54.42;;;22.00;;
24521;SDS011;12680;57.804;12.190;2024-03-02T01:53:01;49.97;;;19.38;;
24521;SDS011;12680;57.804;12.190;2024-03-02T01:55:29;56.20;;;21.25;;
24521;SDS011;12680;57.804;12.190;2024-03-02T01:57:57;47.90;;;21.08;;
24521;SDS011;12680;57.804;12.190;2024-03-02T02:00:25;50.03;;;19.92;;
24521;SDS011;12680;57.804;12.190;2024-03-02T02:02:54;44.45;;;19.45;;
24521;SDS011;12680;57.804;12.190;2024-03-02T02:05:21;52.83;;;20.23;;
24521;SDS011;12680;57.804;12.190;2024-03-02T02:07:48;44.75;;;18.95;;
24521;SDS011;12680;57.804;12.190;2024-03-02T02:10:15;46.47;;;20.60;;
24521;SDS011;12680;57.804;12.190;2024-03-02T02:12:42;49.30;;;20.17;;
24521;SDS011;12680;57.804;12.190;2024-03-02T02:15:25;45.95;;;19.27;;
24521;SDS011;12680;57.804;12.190;2024-03-02T02:17:53;39.65;;;17.85;;
24521;SDS011;12680;57.804;12.190;2024-03-02T02:20:21;52.65;;;19.42;;
24521;SDS011;12680;57.804;12.190;2024-03-02T02:22:55;45.85;;;19.88;;
24521;SDS011;12680;57.804;12.190;2024-03-02T02:25:29;52.25;;;20.98;;
24521;SDS011;12680;57.804;12.190;2024-03-02T02:27:57;37.20;;;16.80;;
24521;SDS011;12680;57.804;12.190;2024-03-02T02:30:25;45.67;;;19.33;;
24521;SDS011;12680;57.804;12.190;2024-03-02T02:32:54;43.83;;;18.00;;
24521;SDS011;12680;57.804;12.190;2024-03-02T02:35:22;43.75;;;19.42;;
24521;SDS011;12680;57.804;12.190;2024-03-02T02:37:50;42.13;;;18.20;;
24521;SDS011;12680;57.804;12.190;2024-03-02T02:40:20;35.85;;;16.73;;
24521;SDS011;12680;57.804;12.190;2024-03-02T02:42:47;41.08;;;16.60;;
24521;SDS011;12680;57.804;12.190;2024-03-02T02:45:14;41.25;;;17.85;;
24521;SDS011;12680;57.804;12.190;2024-03-02T02:47:42;44.00;;;18.60;;
24521;SDS011;12680;57.804;12.190;2024-03-02T02:50:10;40.20;;;19.67;;
24521;SDS011;12680;57.804;12.190;2024-03-02T02:52:39;47.72;;;19.83;;
24521;SDS011;12680;57.804;12.190;2024-03-02T02:55:08;43.88;;;19.35;;
24521;SDS011;12680;57.804;12.190;2024-03-02T02:57:36;45.58;;;17.83;;
24521;SDS011;12680;57.804;12.190;2024-03-02T03:00:06;51.28;;;21.13;;
24521;SDS011;12680;57.804;12.190;2024-03-02T03:02:40;38.53;;;17.23;;
24521;SDS011;12680;57.804;12.190;2024-03-02T03:05:08;41.53;;;17.65;;
24521;SDS011;12680;57.804;12.190;2024-03-02T03:07:36;41.38;;;17.23;;
24521;SDS011;12680;57.804;12.190;2024-03-02T03:10:05;46.90;;;19.98;;
24521;SDS011;12680;57.804;12.190;2024-03-02T03:12:34;44.58;;;19.70;;
24521;SDS011;12680;57.804;12.190;2024-03-02T03:15:01;45.45;;;18.45;;
24521;SDS011;12680;57.804;12.190;2024-03-02T03:17:29;43.30;;;17.73;;
24521;SDS011;12680;57.804;12.190;2024-03-02T03:19:56;38.00;;;17.17;;
24521;SDS011;12680;57.804;12.190;2024-03-02T03:22:23;44.50;;;18.42;;
24521;SDS011;12680;57.804;12.190;2024-03-02T03:24:49;41.72;;;18.63;;
24521;SDS011;12680;57.804;12.190;2024-03-02T03:27:16;49.28;;;19.63;;
24521;SDS011;12680;57.804;12.190;2024-03-02T03:29:43;49.83;;;20.35;;
24521;SDS011;12680;57.804;12.190;2024-03-02T03:32:10;44.70;;;19.45;;
24521;SDS011;12680;57.804;12.190;2024-03-02T03:34:37;44.10;;;18.95;;
24521;SDS011;12680;57.804;12.190;2024-03-02T03:37:04;40.40;;;17.25;;
24521;SDS011;12680;57.804;12.190;2024-03-02T03:39:31;42.55;;;18.02;;
24521;SDS011;12680;57.804;12.190;2024-03-02T03:42:00;49.30;;;19.52;;
24521;SDS011;12680;57.804;12.190;2024-03-02T03:44:26;38.22;;;17.40;;
24521;SDS011;12680;57.804;12.190;2024-03-02T03:46:53;42.72;;;18.10;;
24521;SDS011;12680;57.804;12.190;2024-03-02T03:49:20;51.83;;;19.52;;
24521;SDS011;12680;57.804;12.190;2024-03-02T03:51:47;45.33;;;19.90;;
24521;SDS011;12680;57.804;12.190;2024-03-02T03:54:14;37.70;;;16.95;;
24521;SDS011;12680;57.804;12.190;2024-03-02T03:56:40;42.42;;;17.48;;
24521;SDS011;12680;57.804;12.190;2024-03-02T03:59:07;46.45;;;20.25;;
24521;SDS011;12680;57.804;12.190;2024-03-02T04:01:34;47.35;;;19.02;;
24521;SDS011;12680;57.804;12.190;2024-03-02T04:04:01;37.88;;;16.48;;
24521;SDS011;12680;57.804;12.190;2024-03-02T04:06:29;44.00;;;19.23;;
24521;SDS011;12680;57.804;12.190;2024-03-02T04:08:56;42.45;;;19.13;;
24521;SDS011;12680;57.804;12.190;2024-03-02T04:11:23;41.28;;;18.38;;
24521;SDS011;12680;57.804;12.190;2024-03-02T04:13:50;42.35;;;18.38;;
24521;SDS011;12680;57.804;12.190;2024-03-02T04:16:17;46.30;;;19.65;;
24521;SDS011;12680;57.804;12.190;2024-03-02T04:18:44;40.33;;;18.10;;
24521;SDS011;12680;57.804;12.190;2024-03-02T04:21:11;46.97;;;18.40;;
24521;SDS011;12680;57.804;12.190;2024-03-02T04:23:38;44.38;;;18.48;;
24521;SDS011;12680;57.804;12.190;2024-03-02T04:26:04;44.70;;;19.15;;
24521;SDS011;12680;57.804;12.190;2024-03-02T04:28:31;38.28;;;17.73;;
24521;SDS011;12680;57.804;12.190;2024-03-02T04:30:59;48.25;;;18.92;;
24521;SDS011;12680;57.804;12.190;2024-03-02T04:33:26;41.78;;;17.60;;
24521;SDS011;12680;57.804;12.190;2024-03-02T04:35:52;47.35;;;19.10;;
24521;SDS011;12680;57.804;12.190;2024-03-02T04:38:19;49.65;;;19.73;;
24521;SDS011;12680;57.804;12.190;2024-03-02T04:40:46;46.47;;;18.88;;
24521;SDS011;12680;57.804;12.190;2024-03-02T04:43:13;51.88;;;20.23;;
24521;SDS011;12680;57.804;12.190;2024-03-02T04:45:42;45.20;;;17.27;;
24521;SDS011;12680;57.804;12.190;2024-03-02T04:48:09;39.08;;;17.92;;
24521;SDS011;12680;57.804;12.190;2024-03-02T04:50:36;41.17;;;17.88;;
24521;SDS011;12680;57.804;12.190;2024-03-02T04:53:03;38.63;;;17.25;;
24521;SDS011;12680;57.804;12.190;2024-03-02T04:55:30;46.03;;;18.75;;
24521;SDS011;12680;57.804;12.190;2024-03-02T04:58:06;44.58;;;18.48;;
24521;SDS011;12680;57.804;12.190;2024-03-02T05:00:33;38.95;;;17.83;;
24521;SDS011;12680;57.804;12.190;2024-03-02T05:03:00;40.70;;;17.30;;
24521;SDS011;12680;57.804;12.190;2024-03-02T05:05:28;43.08;;;19.00;;
24521;SDS011;12680;57.804;12.190;2024-03-02T05:07:54;45.58;;;18.13;;
24521;SDS011;12680;57.804;12.190;2024-03-02T05:10:21;44.88;;;18.35;;
24521;SDS011;12680;57.804;12.190;2024-03-02T05:12:48;43.05;;;17.67;;
24521;SDS011;12680;57.804;12.190;2024-03-02T05:15:26;44.33;;;17.48;;
24521;SDS011;12680;57.804;12.190;2024-03-02T05:17:53;42.10;;;18.45;;
24521;SDS011;12680;57.804;12.190;2024-03-02T05:20:20;43.97;;;18.77;;
24521;SDS011;12680;57.804;12.190;2024-03-02T05:22:47;40.67;;;17.42;;
24521;SDS011;12680;57.804;12.190;2024-03-02T05:25:14;43.75;;;17.73;;
24521;SDS011;12680;57.804;12.190;2024-03-02T05:27:41;44.22;;;18.00;;
24521;SDS011;12680;57.804;12.190;2024-03-02T05:30:08;41.08;;;17.52;;
24521;SDS011;12680;57.804;12.190;2024-03-02T05:32:36;45.35;;;17.60;;
24521;SDS011;12680;57.804;12.190;2024-03-02T05:35:04;47.42;;;18.17;;
24521;SDS011;12680;57.804;12.190;2024-03-02T05:37:31;45.63;;;17.98;;
24521;SDS011;12680;57.804;12.190;2024-03-02T05:39:58;39.03;;;16.15;;
24521;SDS011;12680;57.804;12.190;2024-03-02T05:42:27;43.38;;;17.80;;
24521;SDS011;12680;57.804;12.190;2024-03-02T05:44:57;41.47;;;17.83;;
24521;SDS011;12680;57.804;12.190;2024-03-02T05:47:23;43.90;;;18.02;;
24521;SDS011;12680;57.804;12.190;2024-03-02T05:49:50;41.88;;;18.30;;
24521;SDS011;12680;57.804;12.190;2024-03-02T05:52:17;38.72;;;17.08;;
24521;SDS011;12680;57.804;12.190;2024-03-02T05:54:44;40.40;;;18.08;;
24521;SDS011;12680;57.804;12.190;2024-03-02T05:57:11;43.42;;;17.88;;
24521;SDS011;12680;57.804;12.190;2024-03-02T05:59:52;42.65;;;16.55;;
24521;SDS011;12680;57.804;12.190;2024-03-02T06:02:20;42.83;;;16.98;;
24521;SDS011;12680;57.804;12.190;2024-03-02T06:04:46;43.75;;;17.55;;
24521;SDS011;12680;57.804;12.190;2024-03-02T06:07:13;34.47;;;16.77;;
24521;SDS011;12680;57.804;12.190;2024-03-02T06:09:40;41.63;;;18.20;;
24521;SDS011;12680;57.804;12.190;2024-03-02T06:12:08;45.78;;;18.90;;
24521;SDS011;12680;57.804;12.190;2024-03-02T06:14:35;41.08;;;18.42;;
24521;SDS011;12680;57.804;12.190;2024-03-02T06:17:02;40.80;;;17.73;;
24521;SDS011;12680;57.804;12.190;2024-03-02T06:19:28;44.47;;;17.85;;
24521;SDS011;12680;57.804;12.190;2024-03-02T06:21:55;43.25;;;18.77;;
24521;SDS011;12680;57.804;12.190;2024-03-02T06:24:22;47.78;;;18.95;;
24521;SDS011;12680;57.804;12.190;2024-03-02T06:26:49;45.20;;;19.08;;
24521;SDS011;12680;57.804;12.190;2024-03-02T06:29:16;44.53;;;18.55;;
24521;SDS011;12680;57.804;12.190;2024-03-02T06:31:43;43.15;;;18.58;;
24521;SDS011;12680;57.804;12.190;2024-03-02T06:34:09;42.17;;;17.52;;
24521;SDS011;12680;57.804;12.190;2024-03-02T06:36:36;41.45;;;17.08;;
24521;SDS011;12680;57.804;12.190;2024-03-02T06:39:06;50.97;;;19.58;;
24521;SDS011;12680;57.804;12.190;2024-03-02T06:41:33;39.85;;;17.88;;
24521;SDS011;12680;57.804;12.190;2024-03-02T06:44:00;40.30;;;17.88;;
24521;SDS011;12680;57.804;12.190;2024-03-02T06:46:27;45.35;;;19.10;;
24521;SDS011;12680;57.804;12.190;2024-03-02T06:48:54;44.22;;;19.42;;
24521;SDS011;12680;57.804;12.190;2024-03-02T06:51:21;55.95;;;20.38;;
24521;SDS011;12680;57.804;12.190;2024-03-02T06:53:48;44.22;;;19.08;;
24521;SDS011;12680;57.804;12.190;2024-03-02T06:56:15;48.83;;;19.98;;
24521;SDS011;12680;57.804;12.190;2024-03-02T06:58:41;48.88;;;17.48;;
24521;SDS011;12680;57.804;12.190;2024-03-02T07:01:09;52.90;;;19.98;;
24521;SDS011;12680;57.804;12.190;2024-03-02T07:03:36;47.95;;;19.13;;
24521;SDS011;12680;57.804;12.190;2024-03-02T07:06:03;55.13;;;20.73;;
24521;SDS011;12680;57.804;12.190;2024-03-02T07:08:30;55.70;;;20.98;;
24521;SDS011;12680;57.804;12.190;2024-03-02T07:10:57;49.28;;;21.00;;
24521;SDS011;12680;57.804;12.190;2024-03-02T07:13:24;59.83;;;21.65;;
24521;SDS011;12680;57.804;12.190;2024-03-02T07:15:51;52.40;;;20.35;;
24521;SDS011;12680;57.804;12.190;2024-03-02T07:18:37;53.25;;;20.15;;
24521;SDS011;12680;57.804;12.190;2024-03-02T07:21:08;50.17;;;20.45;;
24521;SDS011;12680;57.804;12.190;2024-03-02T07:23:35;56.13;;;21.05;;
24521;SDS011;12680;57.804;12.190;2024-03-02T07:26:01;53.30;;;20.15;;
24521;SDS011;12680;57.804;12.190;2024-03-02T07:28:32;60.00;;;21.23;;
24521;SDS011;12680;57.804;12.190;2024-03-02T07:31:03;60.08;;;20.67;;
24521;SDS011;12680;57.804;12.190;2024-03-02T07:33:31;50.08;;;19.25;;
24521;SDS011;12680;57.804;12.190;2024-03-02T07:35:59;51.10;;;20.08;;
24521;SDS011;12680;57.804;12.190;2024-03-02T07:38:30;55.05;;;21.30;;
24521;SDS011;12680;57.804;12.190;2024-03-02T07:40:58;55.88;;;21.75;;
24521;SDS011;12680;57.804;12.190;2024-03-02T07:43:24;52.40;;;19.23;;
24521;SDS011;12680;57.804;12.190;2024-03-02T07:45:51;48.13;;;20.42;;
24521;SDS011;12680;57.804;12.190;2024-03-02T07:48:19;46.55;;;20.55;;
24521;SDS011;12680;57.804;12.190;2024-03-02T07:50:46;52.95;;;20.88;;
24521;SDS011;12680;57.804;12.190;2024-03-02T07:53:13;57.97;;;21.08;;
24521;SDS011;12680;57.804;12.190;2024-03-02T07:55:40;63.30;;;20.85;;
24521;SDS011;12680;57.804;12.190;2024-03-02T07:58:07;51.95;;;20.80;;
24521;SDS011;12680;57.804;12.190;2024-03-02T08:00:34;55.40;;;20.67;;
24521;SDS011;12680;57.804;12.190;2024-03-02T08:03:01;50.20;;;21.50;;
24521;SDS011;12680;57.804;12.190;2024-03-02T08:05:28;52.83;;;21.60;;
24521;SDS011;12680;57.804;12.190;2024-03-02T08:07:55;63.22;;;21.98;;
24521;SDS011;12680;57.804;12.190;2024-03-02T08:10:22;45.67;;;18.30;;
24521;SDS011;12680;57.804;12.190;2024-03-02T08:12:49;49.53;;;21.63;;
24521;SDS011;12680;57.804;12.190;2024-03-02T08:15:15;50.35;;;20.90;;
24521;SDS011;12680;57.804;12.190;2024-03-02T08:17:42;45.65;;;20.60;;
24521;SDS011;12680;57.804;12.190;2024-03-02T08:20:16;50.88;;;20.88;;
24521;SDS011;12680;57.804;12.190;2024-03-02T08:22:43;51.22;;;20.63;;
24521;SDS011;12680;57.804;12.190;2024-03-02T08:25:11;49.55;;;21.80;;
24521;SDS011;12680;57.804;12.190;2024-03-02T08:27:37;54.83;;;21.40;;
24521;SDS011;12680;57.804;12.190;2024-03-02T08:30:06;48.75;;;20.55;;
24521;SDS011;12680;57.804;12.190;2024-03-02T08:32:34;50.45;;;22.42;;
24521;SDS011;12680;57.804;12.190;2024-03-02T08:35:01;55.17;;;22.33;;
24521;SDS011;12680;57.804;12.190;2024-03-02T08:37:28;49.25;;;19.98;;
24521;SDS011;12680;57.804;12.190;2024-03-02T08:39:55;53.83;;;22.40;;
24521;SDS011;12680;57.804;12.190;2024-03-02T08:42:22;51.65;;;22.85;;
24521;SDS011;12680;57.804;12.190;2024-03-02T08:44:49;52.08;;;21.45;;
24521;SDS011;12680;57.804;12.190;2024-03-02T08:47:16;59.58;;;23.30;;
24521;SDS011;12680;57.804;12.190;2024-03-02T08:49:43;52.15;;;21.05;;
24521;SDS011;12680;57.804;12.190;2024-03-02T08:52:10;53.80;;;23.58;;
24521;SDS011;12680;57.804;12.190;2024-03-02T08:54:37;50.90;;;23.42;;
24521;SDS011;12680;57.804;12.190;2024-03-02T08:57:05;54.08;;;22.90;;
24521;SDS011;12680;57.804;12.190;2024-03-02T08:59:32;54.60;;;23.92;;
24521;SDS011;12680;57.804;12.190;2024-03-02T09:01:59;61.58;;;23.50;;
24521;SDS011;12680;57.804;12.190;2024-03-02T09:04:26;56.85;;;23.67;;
24521;SDS011;12680;57.804;12.190;2024-03-02T09:06:58;57.22;;;23.20;;
24521;SDS011;12680;57.804;12.190;2024-03-02T09:09:26;52.88;;;22.02;;
24521;SDS011;12680;57.804;12.190;2024-03-02T09:11:52;56.58;;;23.80;;
24521;SDS011;12680;57.804;12.190;2024-03-02T09:14:21;55.45;;;24.27;;
24521;SDS011;12680;57.804;12.190;2024-03-02T09:16:48;58.85;;;24.35;;
24521;SDS011;12680;57.804;12.190;2024-03-02T09:19:15;51.35;;;22.88;;
24521;SDS011;12680;57.804;12.190;2024-03-02T09:21:42;54.33;;;23.45;;
24521;SDS011;12680;57.804;12.190;2024-03-02T09:24:10;58.28;;;24.58;;
24521;SDS011;12680;57.804;12.190;2024-03-02T09:26:39;57.55;;;25.02;;
24521;SDS011;12680;57.804;12.190;2024-03-02T09:29:06;60.55;;;25.15;;
24521;SDS011;12680;57.804;12.190;2024-03-02T09:31:33;53.47;;;24.98;;
24521;SDS011;12680;57.804;12.190;2024-03-02T09:34:05;53.53;;;24.52;;
24521;SDS011;12680;57.804;12.190;2024-03-02T09:36:32;60.10;;;25.08;;
24521;SDS011;12680;57.804;12.190;2024-03-02T09:38:59;54.65;;;24.20;;
24521;SDS011;12680;57.804;12.190;2024-03-02T09:41:25;50.55;;;24.10;;
24521;SDS011;12680;57.804;12.190;2024-03-02T09:43:52;57.72;;;25.55;;
24521;SDS011;12680;57.804;12.190;2024-03-02T09:46:21;59.15;;;24.75;;
24521;SDS011;12680;57.804;12.190;2024-03-02T09:48:51;54.03;;;24.02;;
24521;SDS011;12680;57.804;12.190;2024-03-02T09:51:19;60.33;;;25.83;;
24521;SDS011;12680;57.804;12.190;2024-03-02T09:53:47;55.17;;;26.13;;
24521;SDS011;12680;57.804;12.190;2024-03-02T09:56:17;65.60;;;26.35;;
24521;SDS011;12680;57.804;12.190;2024-03-02T09:58:47;60.80;;;26.25;;
24521;SDS011;12680;57.804;12.190;2024-03-02T10:01:23;53.90;;;24.08;;
24521;SDS011;12680;57.804;12.190;2024-03-02T10:03:53;55.97;;;25.40;;
24521;SDS011;12680;57.804;12.190;2024-03-02T10:06:24;56.25;;;25.10;;
24521;SDS011;12680;57.804;12.190;2024-03-02T10:08:52;55.58;;;25.33;;
24521;SDS011;12680;57.804;12.190;2024-03-02T10:11:32;47.93;;;23.07;;
24521;SDS011;12680;57.804;12.190;2024-03-02T10:14:06;58.63;;;25.13;;
24521;SDS011;12680;57.804;12.190;2024-03-02T10:16:35;59.83;;;26.20;;
24521;SDS011;12680;57.804;12.190;2024-03-02T10:19:16;50.85;;;24.27;;
24521;SDS011;12680;57.804;12.190;2024-03-02T10:21:47;60.03;;;26.13;;
24521;SDS011;12680;57.804;12.190;2024-03-02T10:24:19;57.80;;;25.95;;
24521;SDS011;12680;57.804;12.190;2024-03-02T10:26:47;56.85;;;27.70;;
24521;SDS011;12680;57.804;12.190;2024-03-02T10:29:15;53.97;;;26.55;;
24521;SDS011;12680;57.804;12.190;2024-03-02T10:31:43;55.38;;;26.80;;
24521;SDS011;12680;57.804;12.190;2024-03-02T10:34:12;55.30;;;25.85;;
24521;SDS011;12680;57.804;12.190;2024-03-02T10:36:42;61.65;;;26.48;;
24521;SDS011;12680;57.804;12.190;2024-03-02T10:39:12;53.67;;;25.27;;
24521;SDS011;12680;57.804;12.190;2024-03-02T10:41:40;63.08;;;27.58;;
24521;SDS011;12680;57.804;12.190;2024-03-02T10:44:08;59.30;;;27.27;;
24521;SDS011;12680;57.804;12.190;2024-03-02T10:46:36;58.20;;;26.85;;
24521;SDS011;12680;57.804;12.190;2024-03-02T10:49:04;57.70;;;27.90;;
24521;SDS011;12680;57.804;12.190;2024-03-02T10:51:34;56.30;;;28.10;;
24521;SDS011;12680;57.804;12.190;2024-03-02T10:54:03;49.63;;;25.65;;
24521;SDS011;12680;57.804;12.190;2024-03-02T10:56:32;49.95;;;26.65;;
24521;SDS011;12680;57.804;12.190;2024-03-02T10:59:08;51.65;;;26.83;;
24521;SDS011;12680;57.804;12.190;2024-03-02T11:01:43;48.75;;;25.80;;
24521;SDS011;12680;57.804;12.190;2024-03-02T11:04:17;52.97;;;28.27;;
24521;SDS011;12680;57.804;12.190;2024-03-02T11:06:48;53.05;;;26.50;;
24521;SDS011;12680;57.804;12.190;2024-03-02T11:09:16;57.10;;;25.13;;
24521;SDS011;12680;57.804;12.190;2024-03-02T11:11:48;50.58;;;26.63;;
24521;SDS011;12680;57.804;12.190;2024-03-02T11:14:21;51.20;;;28.25;;
24521;SDS011;12680;57.804;12.190;2024-03-02T11:16:51;46.15;;;25.67;;
24521;SDS011;12680;57.804;12.190;2024-03-02T11:19:18;52.15;;;26.13;;
24521;SDS011;12680;57.804;12.190;2024-03-02T11:21:46;48.00;;;25.70;;
24521;SDS011;12680;57.804;12.190;2024-03-02T11:24:28;48.65;;;25.85;;
24521;SDS011;12680;57.804;12.190;2024-03-02T11:27:07;43.53;;;23.33;;
24521;SDS011;12680;57.804;12.190;2024-03-02T11:32:15;45.10;;;23.17;;
24521;SDS011;12680;57.804;12.190;2024-03-02T11:34:47;38.95;;;21.77;;
24521;SDS011;12680;57.804;12.190;2024-03-02T11:37:18;36.47;;;21.30;;
24521;SDS011;12680;57.804;12.190;2024-03-02T11:39:49;34.05;;;19.70;;
24521;SDS011;12680;57.804;12.190;2024-03-02T11:42:17;34.70;;;19.48;;
24521;SDS011;12680;57.804;12.190;2024-03-02T11:44:45;30.90;;;18.80;;
24521;SDS011;12680;57.804;12.190;2024-03-02T11:47:14;29.92;;;18.33;;
24521;SDS011;12680;57.804;12.190;2024-03-02T11:49:49;30.00;;;18.13;;
24521;SDS011;12680;57.804;12.190;2024-03-02T11:52:17;31.45;;;20.17;;
24521;SDS011;12680;57.804;12.190;2024-03-02T11:54:46;23.63;;;17.20;;
24521;SDS011;12680;57.804;12.190;2024-03-02T11:57:16;26.55;;;15.98;;
24521;SDS011;12680;57.804;12.190;2024-03-02T11:59:44;29.85;;;16.83;;
24521;SDS011;12680;57.804;12.190;2024-03-02T12:02:18;26.38;;;17.15;;
24521;SDS011;12680;57.804;12.190;2024-03-02T12:04:46;24.75;;;15.65;;
24521;SDS011;12680;57.804;12.190;2024-03-02T12:07:20;24.58;;;16.02;;
24521;SDS011;12680;57.804;12.190;2024-03-02T12:09:59;22.40;;;14.43;;
24521;SDS011;12680;57.804;12.190;2024-03-02T12:12:28;21.25;;;13.07;;
24521;SDS011;12680;57.804;12.190;2024-03-02T12:14:54;20.83;;;13.93;;
24521;SDS011;12680;57.804;12.190;2024-03-02T12:17:22;22.38;;;13.93;;
24521;SDS011;12680;57.804;12.190;2024-03-02T12:19:49;24.00;;;13.40;;
24521;SDS011;12680;57.804;12.190;2024-03-02T12:22:16;20.92;;;13.43;;
24521;SDS011;12680;57.804;12.190;2024-03-02T12:24:43;21.67;;;13.20;;
24521;SDS011;12680;57.804;12.190;2024-03-02T12:27:14;19.23;;;13.30;;
24521;SDS011;12680;57.804;12.190;2024-03-02T12:29:41;19.38;;;12.52;;
24521;SDS011;12680;57.804;12.190;2024-03-02T12:32:09;19.70;;;13.18;;
24521;SDS011;12680;57.804;12.190;2024-03-02T12:34:36;17.63;;;12.10;;
24521;SDS011;12680;57.804;12.190;2024-03-02T12:37:04;18.25;;;12.27;;
24521;SDS011;12680;57.804;12.190;2024-03-02T12:39:32;18.95;;;12.90;;
24521;SDS011;12680;57.804;12.190;2024-03-02T12:41:59;17.25;;;11.15;;
24521;SDS011;12680;57.804;12.190;2024-03-02T12:44:26;16.58;;;11.43;;
24521;SDS011;12680;57.804;12.190;2024-03-02T12:46:53;17.42;;;12.07;;
24521;SDS011;12680;57.804;12.190;2024-03-02T12:49:24;19.85;;;11.55;;
24521;SDS011;12680;57.804;12.190;2024-03-02T12:51:51;16.95;;;10.95;;
24521;SDS011;12680;57.804;12.190;2024-03-02T12:54:21;16.98;;;11.63;;
24521;SDS011;12680;57.804;12.190;2024-03-02T12:56:49;16.48;;;10.95;;
24521;SDS011;12680;57.804;12.190;2024-03-02T12:59:20;17.33;;;11.32;;
24521;SDS011;12680;57.804;12.190;2024-03-02T13:01:53;17.23;;;11.00;;
24521;SDS011;12680;57.804;12.190;2024-03-02T13:04:21;15.23;;;10.35;;
24521;SDS011;12680;57.804;12.190;2024-03-02T13:06:50;16.90;;;11.40;;
24521;SDS011;12680;57.804;12.190;2024-03-02T13:09:17;15.10;;;10.82;;
24521;SDS011;12680;57.804;12.190;2024-03-02T13:11:45;16.55;;;10.68;;
24521;SDS011;12680;57.804;12.190;2024-03-02T13:14:12;14.27;;;10.05;;
24521;SDS011;12680;57.804;12.190;2024-03-02T13:16:41;14.88;;;9.48;;
24521;SDS011;12680;57.804;12.190;2024-03-02T13:19:13;12.90;;;9.10;;
24521;SDS011;12680;57.804;12.190;2024-03-02T13:21:40;13.57;;;9.00;;
24521;SDS011;12680;57.804;12.190;2024-03-02T13:24:08;13.85;;;9.45;;
24521;SDS011;12680;57.804;12.190;2024-03-02T13:26:35;14.95;;;9.25;;
24521;SDS011;12680;57.804;12.190;2024-03-02T13:29:02;12.73;;;9.75;;
24521;SDS011;12680;57.804;12.190;2024-03-02T13:31:29;14.60;;;10.40;;
24521;SDS011;12680;57.804;12.190;2024-03-02T13:33:56;12.98;;;9.48;;
24521;SDS011;12680;57.804;12.190;2024-03-02T13:36:22;11.65;;;8.57;;
24521;SDS011;12680;57.804;12.190;2024-03-02T13:38:50;12.45;;;8.18;;
24521;SDS011;12680;57.804;12.190;2024-03-02T13:41:17;13.98;;;8.57;;
24521;SDS011;12680;57.804;12.190;2024-03-02T13:43:44;12.55;;;8.30;;
24521;SDS011;12680;57.804;12.190;2024-03-02T13:46:11;12.80;;;8.75;;
24521;SDS011;12680;57.804;12.190;2024-03-02T13:48:38;11.52;;;8.45;;
24521;SDS011;12680;57.804;12.190;2024-03-02T13:51:05;11.40;;;8.18;;
24521;SDS011;12680;57.804;12.190;2024-03-02T13:53:32;11.80;;;8.13;;
24521;SDS011;12680;57.804;12.190;2024-03-02T13:55:59;13.15;;;8.30;;
24521;SDS011;12680;57.804;12.190;2024-03-02T13:58:25;12.52;;;8.55;;
24521;SDS011;12680;57.804;12.190;2024-03-02T14:00:53;12.40;;;7.90;;
24521;SDS011;12680;57.804;12.190;2024-03-02T14:03:20;10.82;;;7.95;;
24521;SDS011;12680;57.804;12.190;2024-03-02T14:05:49;9.85;;;7.85;;
24521;SDS011;12680;57.804;12.190;2024-03-02T14:08:17;10.57;;;7.85;;
24521;SDS011;12680;57.804;12.190;2024-03-02T14:10:44;12.18;;;8.20;;
24521;SDS011;12680;57.804;12.190;2024-03-02T14:13:11;10.88;;;8.02;;
24521;SDS011;12680;57.804;12.190;2024-03-02T14:15:38;13.00;;;8.35;;
24521;SDS011;12680;57.804;12.190;2024-03-02T14:18:05;11.38;;;8.18;;
24521;SDS011;12680;57.804;12.190;2024-03-02T14:20:32;12.30;;;7.88;;
24521;SDS011;12680;57.804;12.190;2024-03-02T14:22:59;11.55;;;8.35;;
24521;SDS011;12680;57.804;12.190;2024-03-02T14:25:27;10.70;;;7.65;;